Боухантеры.ру

Информация о пользователе

Привет, Гость! Войдите или зарегистрируйтесь.


Вы здесь » Боухантеры.ру » Снаряжение боухантера


Снаряжение боухантера

Тем 271 страница 292 из 292

Тема Ответов Просмотров Последнее сообщение
271 Как не мерзнуть на дереве???  Тот Самый Олег
49 396 2020-01-20 11:58:32  Юджин
272 Наконечник Бишоп  Тот Самый Олег
2 74 2020-01-20 03:22:57  Тот Самый Олег
41 547 2020-01-17 23:42:20  РобинГад
9 172 2020-01-16 22:54:36  Юджин
275 Сброс  exc3lent
18 211 2020-01-14 08:57:49  Вован
6 168 2020-01-12 20:13:44  Тот Самый Олег
277 АТА шоу 2020  Александр Курашёв
15 205 2020-01-12 08:46:48  Черкасов
12 188 2020-01-11 08:45:15  iBolit66
279 Broadhead tuning  Тот Самый Олег
14 321 2020-01-10 00:20:07  Bows
280 Перчатки Sitka Ascent Glove - мой опыт  Александр Курашёв
3 80 2020-01-07 00:47:27  Pavel
3 124 2019-12-31 17:13:50  Юджин
282 Про АТА арбалета  Владимир
13 203 2019-12-29 10:28:55  Владимир
2 117 2019-12-27 23:26:46  Bows
1 57 2019-12-27 21:56:10  Александр Курашёв
285 Valkyrie наконечник валькирия  Тот Самый Олег
6 189 2019-12-25 17:04:56  Тот Самый Олег
15 1287 2019-12-25 03:29:13  Тот Самый Олег
287 RMSG CUTTHROAT BROADHEAD  Тот Самый Олег
9 161 2019-12-24 23:00:04  Тот Самый Олег
288 German Kinetics  Тот Самый Олег
3 169 2019-12-24 16:33:33  Юджин
289 Модный вискербискет  Тот Самый Олег
2 104 2019-12-23 05:16:53  Тот Самый Олег
2 65 2019-12-23 01:18:48  Александр Курашёв
291 Опрос: Что бы вы хотели увидеть на АТА Шоу 2020?  Александр Курашёв
4 117 2019-12-22 12:44:30  Sanarcher
3 238 2019-12-20 23:07:42  ОлегычЪ

Вы здесь » Боухантеры.ру » Снаряжение боухантера